Aviation Digital Data Service (ADDS)

Output produced by METARs form (0215 UTC 03 September 2014)
found at http://aviationweather.gov/adds/metars/
 
KORH 022329Z 0300/0324 19004KT P6SM SCT030 
     FM030400 23009KT P6SM BKN120 
     FM030700 25007KT P6SM BKN030 
     FM030900 31007KT P6SM BKN025 
     FM031100 31008KT P6SM SCT250